sensor_id;sensor_type;location;lat;lon;timestamp;P1;durP1;ratioP1;P2;durP2;ratioP2
7571;SDS011;3827;49.928;8.548;2024-02-15T00:00:19;8.63;;;7.65;;
7571;SDS011;3827;49.928;8.548;2024-02-15T00:02:49;8.40;;;7.38;;
7571;SDS011;3827;49.928;8.548;2024-02-15T00:05:15;8.43;;;7.50;;
7571;SDS011;3827;49.928;8.548;2024-02-15T00:07:42;9.17;;;7.53;;
7571;SDS011;3827;49.928;8.548;2024-02-15T00:10:11;8.60;;;7.50;;
7571;SDS011;3827;49.928;8.548;2024-02-15T00:12:39;8.90;;;7.38;;
7571;SDS011;3827;49.928;8.548;2024-02-15T00:15:06;9.65;;;7.75;;
7571;SDS011;3827;49.928;8.548;2024-02-15T00:17:34;8.23;;;7.00;;
7571;SDS011;3827;49.928;8.548;2024-02-15T00:20:02;9.50;;;7.07;;
7571;SDS011;3827;49.928;8.548;2024-02-15T00:22:34;8.68;;;7.57;;
7571;SDS011;3827;49.928;8.548;2024-02-15T00:25:01;8.10;;;6.95;;
7571;SDS011;3827;49.928;8.548;2024-02-15T00:27:30;8.73;;;7.82;;
7571;SDS011;3827;49.928;8.548;2024-02-15T00:29:58;7.63;;;6.90;;
7571;SDS011;3827;49.928;8.548;2024-02-15T00:32:25;9.38;;;7.00;;
7571;SDS011;3827;49.928;8.548;2024-02-15T00:34:52;10.20;;;7.25;;
7571;SDS011;3827;49.928;8.548;2024-02-15T00:37:20;6.93;;;6.33;;
7571;SDS011;3827;49.928;8.548;2024-02-15T00:39:47;7.05;;;6.35;;
7571;SDS011;3827;49.928;8.548;2024-02-15T00:42:14;7.00;;;6.20;;
7571;SDS011;3827;49.928;8.548;2024-02-15T00:44:41;9.02;;;6.40;;
7571;SDS011;3827;49.928;8.548;2024-02-15T00:47:16;7.25;;;6.55;;
7571;SDS011;3827;49.928;8.548;2024-02-15T00:49:44;7.70;;;6.70;;
7571;SDS011;3827;49.928;8.548;2024-02-15T00:52:11;7.60;;;6.80;;
7571;SDS011;3827;49.928;8.548;2024-02-15T00:54:39;7.40;;;6.63;;
7571;SDS011;3827;49.928;8.548;2024-02-15T00:57:06;7.50;;;6.80;;
7571;SDS011;3827;49.928;8.548;2024-02-15T00:59:33;8.27;;;7.47;;
7571;SDS011;3827;49.928;8.548;2024-02-15T01:02:01;7.13;;;6.43;;
7571;SDS011;3827;49.928;8.548;2024-02-15T01:04:28;7.13;;;6.50;;
7571;SDS011;3827;49.928;8.548;2024-02-15T01:06:55;7.60;;;6.80;;
7571;SDS011;3827;49.928;8.548;2024-02-15T01:09:22;6.95;;;6.32;;
7571;SDS011;3827;49.928;8.548;2024-02-15T01:11:50;8.07;;;6.50;;
7571;SDS011;3827;49.928;8.548;2024-02-15T01:14:17;7.95;;;7.15;;
7571;SDS011;3827;49.928;8.548;2024-02-15T01:16:44;7.90;;;7.10;;
7571;SDS011;3827;49.928;8.548;2024-02-15T01:19:11;8.20;;;7.00;;
7571;SDS011;3827;49.928;8.548;2024-02-15T01:21:38;7.40;;;6.70;;
7571;SDS011;3827;49.928;8.548;2024-02-15T01:24:05;7.60;;;6.90;;
7571;SDS011;3827;49.928;8.548;2024-02-15T01:26:32;8.65;;;6.82;;
7571;SDS011;3827;49.928;8.548;2024-02-15T01:29:01;7.72;;;6.97;;
7571;SDS011;3827;49.928;8.548;2024-02-15T01:31:28;7.53;;;6.78;;
7571;SDS011;3827;49.928;8.548;2024-02-15T01:33:55;7.97;;;7.18;;
7571;SDS011;3827;49.928;8.548;2024-02-15T01:36:22;8.75;;;6.90;;
7571;SDS011;3827;49.928;8.548;2024-02-15T01:38:49;8.30;;;6.83;;
7571;SDS011;3827;49.928;8.548;2024-02-15T01:41:16;7.93;;;6.97;;
7571;SDS011;3827;49.928;8.548;2024-02-15T01:43:43;7.80;;;6.97;;
7571;SDS011;3827;49.928;8.548;2024-02-15T01:46:12;8.45;;;7.38;;
7571;SDS011;3827;49.928;8.548;2024-02-15T01:48:40;7.32;;;6.57;;
7571;SDS011;3827;49.928;8.548;2024-02-15T01:51:08;7.72;;;6.50;;
7571;SDS011;3827;49.928;8.548;2024-02-15T01:53:37;7.78;;;6.50;;
7571;SDS011;3827;49.928;8.548;2024-02-15T01:56:05;7.72;;;6.55;;
7571;SDS011;3827;49.928;8.548;2024-02-15T01:58:32;7.53;;;6.82;;
7571;SDS011;3827;49.928;8.548;2024-02-15T02:01:01;7.47;;;6.70;;
7571;SDS011;3827;49.928;8.548;2024-02-15T02:03:29;7.93;;;7.10;;
7571;SDS011;3827;49.928;8.548;2024-02-15T02:05:56;7.22;;;6.40;;
7571;SDS011;3827;49.928;8.548;2024-02-15T02:08:24;8.57;;;6.90;;
7571;SDS011;3827;49.928;8.548;2024-02-15T02:10:52;10.32;;;7.22;;
7571;SDS011;3827;49.928;8.548;2024-02-15T02:13:19;7.32;;;6.63;;
7571;SDS011;3827;49.928;8.548;2024-02-15T02:15:46;6.72;;;6.13;;
7571;SDS011;3827;49.928;8.548;2024-02-15T02:18:12;8.98;;;6.15;;
7571;SDS011;3827;49.928;8.548;2024-02-15T02:20:41;7.22;;;6.22;;
7571;SDS011;3827;49.928;8.548;2024-02-15T02:23:09;7.53;;;6.47;;
7571;SDS011;3827;49.928;8.548;2024-02-15T02:25:41;10.43;;;6.30;;
7571;SDS011;3827;49.928;8.548;2024-02-15T02:28:11;7.03;;;6.13;;
7571;SDS011;3827;49.928;8.548;2024-02-15T02:30:38;7.32;;;5.90;;
7571;SDS011;3827;49.928;8.548;2024-02-15T02:33:09;7.97;;;6.32;;
7571;SDS011;3827;49.928;8.548;2024-02-15T02:35:42;9.07;;;6.20;;
7571;SDS011;3827;49.928;8.548;2024-02-15T02:38:09;7.05;;;5.57;;
7571;SDS011;3827;49.928;8.548;2024-02-15T02:40:36;8.70;;;6.00;;
7571;SDS011;3827;49.928;8.548;2024-02-15T02:43:04;7.47;;;5.85;;
7571;SDS011;3827;49.928;8.548;2024-02-15T02:45:32;7.63;;;5.53;;
7571;SDS011;3827;49.928;8.548;2024-02-15T02:47:59;6.70;;;5.70;;
7571;SDS011;3827;49.928;8.548;2024-02-15T02:50:25;7.40;;;5.75;;
7571;SDS011;3827;49.928;8.548;2024-02-15T02:52:52;6.80;;;5.90;;
7571;SDS011;3827;49.928;8.548;2024-02-15T02:55:19;9.37;;;6.40;;
7571;SDS011;3827;49.928;8.548;2024-02-15T02:57:46;6.10;;;5.50;;
7571;SDS011;3827;49.928;8.548;2024-02-15T03:00:15;6.25;;;5.65;;
7571;SDS011;3827;49.928;8.548;2024-02-15T03:02:43;7.32;;;5.30;;
7571;SDS011;3827;49.928;8.548;2024-02-15T03:05:10;7.57;;;5.80;;
7571;SDS011;3827;49.928;8.548;2024-02-15T03:07:38;6.88;;;5.80;;
7571;SDS011;3827;49.928;8.548;2024-02-15T03:10:06;7.10;;;5.60;;
7571;SDS011;3827;49.928;8.548;2024-02-15T03:12:34;6.28;;;5.60;;
7571;SDS011;3827;49.928;8.548;2024-02-15T03:15:01;6.35;;;5.32;;
7571;SDS011;3827;49.928;8.548;2024-02-15T03:17:30;7.50;;;5.28;;
7571;SDS011;3827;49.928;8.548;2024-02-15T03:19:57;7.10;;;5.30;;
7571;SDS011;3827;49.928;8.548;2024-02-15T03:22:24;7.35;;;6.00;;
7571;SDS011;3827;49.928;8.548;2024-02-15T03:24:54;5.63;;;5.10;;
7571;SDS011;3827;49.928;8.548;2024-02-15T03:27:21;6.38;;;5.75;;
7571;SDS011;3827;49.928;8.548;2024-02-15T03:29:48;6.72;;;6.03;;
7571;SDS011;3827;49.928;8.548;2024-02-15T03:32:16;6.07;;;5.57;;
7571;SDS011;3827;49.928;8.548;2024-02-15T03:34:44;6.83;;;5.50;;
7571;SDS011;3827;49.928;8.548;2024-02-15T03:37:11;6.50;;;5.68;;
7571;SDS011;3827;49.928;8.548;2024-02-15T03:39:38;6.53;;;5.80;;
7571;SDS011;3827;49.928;8.548;2024-02-15T03:42:05;6.80;;;5.67;;
7571;SDS011;3827;49.928;8.548;2024-02-15T03:44:32;8.93;;;6.10;;
7571;SDS011;3827;49.928;8.548;2024-02-15T03:46:58;9.77;;;5.68;;
7571;SDS011;3827;49.928;8.548;2024-02-15T03:49:25;9.23;;;5.47;;
7571;SDS011;3827;49.928;8.548;2024-02-15T03:51:53;7.17;;;5.03;;
7571;SDS011;3827;49.928;8.548;2024-02-15T03:54:21;6.10;;;5.13;;
7571;SDS011;3827;49.928;8.548;2024-02-15T03:56:48;6.68;;;4.95;;
7571;SDS011;3827;49.928;8.548;2024-02-15T03:59:17;6.47;;;5.07;;
7571;SDS011;3827;49.928;8.548;2024-02-15T04:01:50;5.65;;;5.07;;
7571;SDS011;3827;49.928;8.548;2024-02-15T04:04:16;6.10;;;5.10;;
7571;SDS011;3827;49.928;8.548;2024-02-15T04:06:46;5.88;;;4.88;;
7571;SDS011;3827;49.928;8.548;2024-02-15T04:09:14;5.53;;;4.97;;
7571;SDS011;3827;49.928;8.548;2024-02-15T04:11:42;6.00;;;5.10;;
7571;SDS011;3827;49.928;8.548;2024-02-15T04:14:09;6.20;;;4.80;;
7571;SDS011;3827;49.928;8.548;2024-02-15T04:16:36;6.22;;;4.43;;
7571;SDS011;3827;49.928;8.548;2024-02-15T04:19:03;5.53;;;5.03;;
7571;SDS011;3827;49.928;8.548;2024-02-15T04:21:29;6.77;;;4.93;;
7571;SDS011;3827;49.928;8.548;2024-02-15T04:23:56;5.22;;;4.78;;
7571;SDS011;3827;49.928;8.548;2024-02-15T04:26:26;7.25;;;5.13;;
7571;SDS011;3827;49.928;8.548;2024-02-15T04:28:55;5.88;;;4.95;;
7571;SDS011;3827;49.928;8.548;2024-02-15T04:31:21;5.57;;;5.03;;
7571;SDS011;3827;49.928;8.548;2024-02-15T04:33:51;5.45;;;4.40;;
7571;SDS011;3827;49.928;8.548;2024-02-15T04:36:18;5.22;;;4.55;;
7571;SDS011;3827;49.928;8.548;2024-02-15T04:38:48;5.45;;;4.65;;
7571;SDS011;3827;49.928;8.548;2024-02-15T04:41:16;5.13;;;4.63;;
7571;SDS011;3827;49.928;8.548;2024-02-15T04:43:49;5.15;;;4.63;;
7571;SDS011;3827;49.928;8.548;2024-02-15T04:46:16;5.07;;;4.40;;
7571;SDS011;3827;49.928;8.548;2024-02-15T04:48:45;6.97;;;4.30;;
7571;SDS011;3827;49.928;8.548;2024-02-15T04:51:14;5.72;;;4.68;;
7571;SDS011;3827;49.928;8.548;2024-02-15T04:53:41;7.20;;;4.67;;
7571;SDS011;3827;49.928;8.548;2024-02-15T04:56:08;4.43;;;4.00;;
7571;SDS011;3827;49.928;8.548;2024-02-15T04:58:38;5.20;;;4.22;;
7571;SDS011;3827;49.928;8.548;2024-02-15T05:01:12;6.40;;;4.28;;
7571;SDS011;3827;49.928;8.548;2024-02-15T05:03:39;5.63;;;4.35;;
7571;SDS011;3827;49.928;8.548;2024-02-15T05:06:06;5.17;;;4.20;;
7571;SDS011;3827;49.928;8.548;2024-02-15T05:08:34;6.43;;;4.53;;
7571;SDS011;3827;49.928;8.548;2024-02-15T05:11:07;6.25;;;4.38;;
7571;SDS011;3827;49.928;8.548;2024-02-15T05:13:38;4.80;;;4.30;;
7571;SDS011;3827;49.928;8.548;2024-02-15T05:16:05;5.88;;;3.90;;
7571;SDS011;3827;49.928;8.548;2024-02-15T05:18:33;5.22;;;4.30;;
7571;SDS011;3827;49.928;8.548;2024-02-15T05:21:01;5.85;;;4.20;;
7571;SDS011;3827;49.928;8.548;2024-02-15T05:23:28;6.82;;;4.25;;
7571;SDS011;3827;49.928;8.548;2024-02-15T05:25:59;5.32;;;4.40;;
7571;SDS011;3827;49.928;8.548;2024-02-15T05:28:26;5.20;;;3.90;;
7571;SDS011;3827;49.928;8.548;2024-02-15T05:31:08;5.05;;;3.88;;
7571;SDS011;3827;49.928;8.548;2024-02-15T05:33:43;4.80;;;3.65;;
7571;SDS011;3827;49.928;8.548;2024-02-15T05:36:10;5.57;;;3.25;;
7571;SDS011;3827;49.928;8.548;2024-02-15T05:38:38;5.72;;;3.60;;
7571;SDS011;3827;49.928;8.548;2024-02-15T05:41:05;4.50;;;3.33;;
7571;SDS011;3827;49.928;8.548;2024-02-15T05:43:33;6.10;;;3.53;;
7571;SDS011;3827;49.928;8.548;2024-02-15T05:46:01;3.67;;;3.10;;
7571;SDS011;3827;49.928;8.548;2024-02-15T05:48:28;3.97;;;3.00;;
7571;SDS011;3827;49.928;8.548;2024-02-15T05:50:56;4.97;;;3.38;;
7571;SDS011;3827;49.928;8.548;2024-02-15T05:53:24;5.83;;;3.20;;
7571;SDS011;3827;49.928;8.548;2024-02-15T05:55:50;6.05;;;3.25;;
7571;SDS011;3827;49.928;8.548;2024-02-15T05:58:17;5.38;;;2.78;;
7571;SDS011;3827;49.928;8.548;2024-02-15T06:00:44;5.07;;;3.20;;
7571;SDS011;3827;49.928;8.548;2024-02-15T06:03:14;5.32;;;3.28;;
7571;SDS011;3827;49.928;8.548;2024-02-15T06:05:41;3.53;;;2.60;;
7571;SDS011;3827;49.928;8.548;2024-02-15T06:08:09;4.30;;;3.08;;
7571;SDS011;3827;49.928;8.548;2024-02-15T06:10:37;2.87;;;2.63;;
7571;SDS011;3827;49.928;8.548;2024-02-15T06:13:04;6.65;;;3.00;;
7571;SDS011;3827;49.928;8.548;2024-02-15T06:15:31;3.40;;;2.50;;
7571;SDS011;3827;49.928;8.548;2024-02-15T06:17:58;5.72;;;4.82;;
7571;SDS011;3827;49.928;8.548;2024-02-15T06:20:25;8.27;;;5.50;;
7571;SDS011;3827;49.928;8.548;2024-02-15T06:22:55;13.38;;;12.05;;
7571;SDS011;3827;49.928;8.548;2024-02-15T06:25:23;6.43;;;5.90;;
7571;SDS011;3827;49.928;8.548;2024-02-15T06:27:51;5.72;;;3.63;;
7571;SDS011;3827;49.928;8.548;2024-02-15T06:30:23;3.88;;;3.45;;
7571;SDS011;3827;49.928;8.548;2024-02-15T06:33:07;3.03;;;2.70;;
7571;SDS011;3827;49.928;8.548;2024-02-15T06:35:52;3.83;;;3.20;;
7571;SDS011;3827;49.928;8.548;2024-02-15T06:38:36;5.88;;;4.10;;
7571;SDS011;3827;49.928;8.548;2024-02-15T06:41:21;4.88;;;3.50;;
7571;SDS011;3827;49.928;8.548;2024-02-15T06:43:49;3.50;;;3.20;;
7571;SDS011;3827;49.928;8.548;2024-02-15T06:46:15;5.97;;;3.50;;
7571;SDS011;3827;49.928;8.548;2024-02-15T06:48:44;3.57;;;3.03;;
7571;SDS011;3827;49.928;8.548;2024-02-15T06:51:12;3.92;;;3.28;;
7571;SDS011;3827;49.928;8.548;2024-02-15T06:53:40;3.90;;;3.42;;
7571;SDS011;3827;49.928;8.548;2024-02-15T06:56:08;3.92;;;3.50;;
7571;SDS011;3827;49.928;8.548;2024-02-15T06:58:36;5.32;;;4.38;;
7571;SDS011;3827;49.928;8.548;2024-02-15T07:01:05;5.30;;;4.28;;
7571;SDS011;3827;49.928;8.548;2024-02-15T07:03:32;5.40;;;4.30;;
7571;SDS011;3827;49.928;8.548;2024-02-15T07:05:59;5.15;;;3.70;;
7571;SDS011;3827;49.928;8.548;2024-02-15T07:08:27;4.40;;;3.83;;
7571;SDS011;3827;49.928;8.548;2024-02-15T07:10:54;5.50;;;3.78;;
7571;SDS011;3827;49.928;8.548;2024-02-15T07:13:21;5.50;;;4.32;;
7571;SDS011;3827;49.928;8.548;2024-02-15T07:15:49;4.50;;;3.90;;
7571;SDS011;3827;49.928;8.548;2024-02-15T07:18:17;5.70;;;3.90;;
7571;SDS011;3827;49.928;8.548;2024-02-15T07:20:45;6.45;;;3.88;;
7571;SDS011;3827;49.928;8.548;2024-02-15T07:23:12;5.57;;;4.10;;
7571;SDS011;3827;49.928;8.548;2024-02-15T07:25:39;5.35;;;3.80;;
7571;SDS011;3827;49.928;8.548;2024-02-15T07:28:07;5.40;;;3.65;;
7571;SDS011;3827;49.928;8.548;2024-02-15T07:30:34;5.00;;;3.70;;
7571;SDS011;3827;49.928;8.548;2024-02-15T07:33:03;5.43;;;3.87;;
7571;SDS011;3827;49.928;8.548;2024-02-15T07:35:31;5.22;;;3.60;;
7571;SDS011;3827;49.928;8.548;2024-02-15T07:38:00;6.87;;;3.87;;
7571;SDS011;3827;49.928;8.548;2024-02-15T07:40:27;4.35;;;3.58;;
7571;SDS011;3827;49.928;8.548;2024-02-15T07:42:56;4.55;;;3.40;;
7571;SDS011;3827;49.928;8.548;2024-02-15T07:45:23;5.55;;;2.90;;
7571;SDS011;3827;49.928;8.548;2024-02-15T07:47:50;6.55;;;3.60;;
7571;SDS011;3827;49.928;8.548;2024-02-15T07:50:18;3.23;;;2.93;;
7571;SDS011;3827;49.928;8.548;2024-02-15T07:52:48;4.03;;;2.90;;
7571;SDS011;3827;49.928;8.548;2024-02-15T07:55:16;5.60;;;2.97;;
7571;SDS011;3827;49.928;8.548;2024-02-15T07:57:43;5.00;;;3.50;;
7571;SDS011;3827;49.928;8.548;2024-02-15T08:00:11;4.30;;;2.83;;
7571;SDS011;3827;49.928;8.548;2024-02-15T08:02:41;5.53;;;2.60;;
7571;SDS011;3827;49.928;8.548;2024-02-15T08:05:09;3.40;;;3.10;;
7571;SDS011;3827;49.928;8.548;2024-02-15T08:07:40;3.67;;;2.43;;
7571;SDS011;3827;49.928;8.548;2024-02-15T08:10:09;5.25;;;2.78;;
7571;SDS011;3827;49.928;8.548;2024-02-15T08:12:39;5.57;;;2.55;;
7571;SDS011;3827;49.928;8.548;2024-02-15T08:15:07;6.50;;;4.22;;
7571;SDS011;3827;49.928;8.548;2024-02-15T08:17:37;4.05;;;3.10;;
7571;SDS011;3827;49.928;8.548;2024-02-15T08:20:06;7.70;;;6.78;;
7571;SDS011;3827;49.928;8.548;2024-02-15T08:22:34;8.55;;;4.43;;
7571;SDS011;3827;49.928;8.548;2024-02-15T08:25:05;4.50;;;3.65;;
7571;SDS011;3827;49.928;8.548;2024-02-15T08:27:35;6.55;;;3.50;;
7571;SDS011;3827;49.928;8.548;2024-02-15T08:30:06;4.43;;;4.03;;
7571;SDS011;3827;49.928;8.548;2024-02-15T08:32:35;6.47;;;4.97;;
7571;SDS011;3827;49.928;8.548;2024-02-15T08:35:03;5.97;;;4.82;;
7571;SDS011;3827;49.928;8.548;2024-02-15T08:37:31;6.85;;;6.22;;
7571;SDS011;3827;49.928;8.548;2024-02-15T08:39:59;11.02;;;9.75;;
7571;SDS011;3827;49.928;8.548;2024-02-15T08:42:27;24.55;;;22.00;;
7571;SDS011;3827;49.928;8.548;2024-02-15T08:44:54;31.52;;;26.08;;
7571;SDS011;3827;49.928;8.548;2024-02-15T08:47:21;23.43;;;20.53;;
7571;SDS011;3827;49.928;8.548;2024-02-15T08:49:48;26.25;;;23.77;;
7571;SDS011;3827;49.928;8.548;2024-02-15T08:52:15;17.55;;;15.88;;
7571;SDS011;3827;49.928;8.548;2024-02-15T08:54:43;5.30;;;4.80;;
7571;SDS011;3827;49.928;8.548;2024-02-15T08:57:10;5.53;;;3.88;;
7571;SDS011;3827;49.928;8.548;2024-02-15T08:59:40;4.18;;;3.75;;
7571;SDS011;3827;49.928;8.548;2024-02-15T09:02:07;4.68;;;3.88;;
7571;SDS011;3827;49.928;8.548;2024-02-15T09:04:35;3.70;;;2.95;;
7571;SDS011;3827;49.928;8.548;2024-02-15T09:07:01;3.63;;;2.70;;
7571;SDS011;3827;49.928;8.548;2024-02-15T09:09:29;4.20;;;3.80;;
7571;SDS011;3827;49.928;8.548;2024-02-15T09:11:56;5.78;;;3.55;;
7571;SDS011;3827;49.928;8.548;2024-02-15T09:14:24;4.95;;;3.50;;
7571;SDS011;3827;49.928;8.548;2024-02-15T09:16:52;6.53;;;3.50;;
7571;SDS011;3827;49.928;8.548;2024-02-15T09:19:19;5.18;;;3.35;;
7571;SDS011;3827;49.928;8.548;2024-02-15T09:21:46;4.50;;;3.10;;
7571;SDS011;3827;49.928;8.548;2024-02-15T09:24:13;5.83;;;3.30;;
7571;SDS011;3827;49.928;8.548;2024-02-15T09:26:41;5.13;;;2.95;;
7571;SDS011;3827;49.928;8.548;2024-02-15T09:29:09;5.18;;;3.00;;
7571;SDS011;3827;49.928;8.548;2024-02-15T09:31:37;6.60;;;3.15;;
7571;SDS011;3827;49.928;8.548;2024-02-15T09:34:06;4.10;;;2.80;;
7571;SDS011;3827;49.928;8.548;2024-02-15T09:36:33;6.30;;;3.30;;
7571;SDS011;3827;49.928;8.548;2024-02-15T09:39:02;3.30;;;3.00;;
7571;SDS011;3827;49.928;8.548;2024-02-15T09:41:29;4.97;;;3.05;;
7571;SDS011;3827;49.928;8.548;2024-02-15T09:43:57;4.15;;;2.75;;
7571;SDS011;3827;49.928;8.548;2024-02-15T09:46:24;3.93;;;2.70;;
7571;SDS011;3827;49.928;8.548;2024-02-15T09:48:51;6.63;;;4.47;;
7571;SDS011;3827;49.928;8.548;2024-02-15T09:51:26;4.55;;;3.78;;
7571;SDS011;3827;49.928;8.548;2024-02-15T09:53:53;5.50;;;3.03;;
7571;SDS011;3827;49.928;8.548;2024-02-15T09:56:23;4.50;;;2.92;;
7571;SDS011;3827;49.928;8.548;2024-02-15T09:58:53;5.82;;;3.33;;
7571;SDS011;3827;49.928;8.548;2024-02-15T10:01:22;4.82;;;3.22;;
7571;SDS011;3827;49.928;8.548;2024-02-15T10:03:49;3.55;;;3.05;;
7571;SDS011;3827;49.928;8.548;2024-02-15T10:06:16;4.43;;;3.08;;
7571;SDS011;3827;49.928;8.548;2024-02-15T10:08:45;7.38;;;3.17;;
7571;SDS011;3827;49.928;8.548;2024-02-15T10:11:12;4.28;;;2.97;;
7571;SDS011;3827;49.928;8.548;2024-02-15T10:13:40;3.88;;;2.80;;
7571;SDS011;3827;49.928;8.548;2024-02-15T10:16:15;5.10;;;3.00;;
7571;SDS011;3827;49.928;8.548;2024-02-15T10:18:43;5.65;;;3.20;;
7571;SDS011;3827;49.928;8.548;2024-02-15T10:21:23;4.13;;;3.00;;
7571;SDS011;3827;49.928;8.548;2024-02-15T10:23:59;5.20;;;3.33;;
7571;SDS011;3827;49.928;8.548;2024-02-15T10:26:31;3.73;;;2.77;;
7571;SDS011;3827;49.928;8.548;2024-02-15T10:29:06;6.28;;;3.00;;
7571;SDS011;3827;49.928;8.548;2024-02-15T10:31:34;5.88;;;2.97;;
7571;SDS011;3827;49.928;8.548;2024-02-15T10:34:05;4.28;;;2.72;;
7571;SDS011;3827;49.928;8.548;2024-02-15T10:36:32;4.45;;;2.88;;
7571;SDS011;3827;49.928;8.548;2024-02-15T10:39:17;3.37;;;2.70;;
7571;SDS011;3827;49.928;8.548;2024-02-15T10:41:45;3.50;;;2.50;;
7571;SDS011;3827;49.928;8.548;2024-02-15T10:44:17;4.30;;;2.87;;
7571;SDS011;3827;49.928;8.548;2024-02-15T10:46:45;4.93;;;3.00;;
7571;SDS011;3827;49.928;8.548;2024-02-15T10:49:16;10.55;;;3.47;;
7571;SDS011;3827;49.928;8.548;2024-02-15T10:51:48;6.30;;;3.10;;
7571;SDS011;3827;49.928;8.548;2024-02-15T10:54:24;5.00;;;3.20;;
7571;SDS011;3827;49.928;8.548;2024-02-15T10:57:03;3.90;;;3.40;;
7571;SDS011;3827;49.928;8.548;2024-02-15T10:59:31;5.32;;;3.40;;
7571;SDS011;3827;49.928;8.548;2024-02-15T11:02:01;5.70;;;3.70;;
7571;SDS011;3827;49.928;8.548;2024-02-15T11:04:42;5.55;;;3.05;;
7571;SDS011;3827;49.928;8.548;2024-02-15T11:07:10;5.95;;;3.63;;
7571;SDS011;3827;49.928;8.548;2024-02-15T11:09:39;5.55;;;3.38;;
7571;SDS011;3827;49.928;8.548;2024-02-15T11:12:08;6.05;;;4.50;;
7571;SDS011;3827;49.928;8.548;2024-02-15T11:14:36;7.72;;;4.10;;
7571;SDS011;3827;49.928;8.548;2024-02-15T11:17:03;3.08;;;2.78;;
7571;SDS011;3827;49.928;8.548;2024-02-15T11:19:39;3.95;;;2.70;;
7571;SDS011;3827;49.928;8.548;2024-02-15T11:22:09;4.72;;;2.80;;
7571;SDS011;3827;49.928;8.548;2024-02-15T11:24:45;5.28;;;3.42;;
7571;SDS011;3827;49.928;8.548;2024-02-15T11:27:14;5.50;;;3.10;;
7571;SDS011;3827;49.928;8.548;2024-02-15T11:29:52;5.15;;;2.60;;
7571;SDS011;3827;49.928;8.548;2024-02-15T11:32:36;4.30;;;3.10;;
7571;SDS011;3827;49.928;8.548;2024-02-15T11:35:05;4.53;;;2.53;;
7571;SDS011;3827;49.928;8.548;2024-02-15T11:37:49;5.30;;;3.10;;
7571;SDS011;3827;49.928;8.548;2024-02-15T11:40:19;3.95;;;2.85;;
7571;SDS011;3827;49.928;8.548;2024-02-15T11:42:48;2.72;;;2.53;;
7571;SDS011;3827;49.928;8.548;2024-02-15T11:45:15;3.85;;;2.70;;
7571;SDS011;3827;49.928;8.548;2024-02-15T11:47:46;3.40;;;2.40;;
7571;SDS011;3827;49.928;8.548;2024-02-15T11:50:15;3.73;;;2.10;;
7571;SDS011;3827;49.928;8.548;2024-02-15T11:52:42;3.90;;;2.30;;
7571;SDS011;3827;49.928;8.548;2024-02-15T11:55:11;4.85;;;2.80;;
7571;SDS011;3827;49.928;8.548;2024-02-15T11:57:40;3.67;;;2.47;;
7571;SDS011;3827;49.928;8.548;2024-02-15T12:00:23;2.75;;;2.33;;
7571;SDS011;3827;49.928;8.548;2024-02-15T12:03:04;5.10;;;2.90;;
7571;SDS011;3827;49.928;8.548;2024-02-15T12:05:49;3.35;;;2.42;;
7571;SDS011;3827;49.928;8.548;2024-02-15T12:08:33;5.23;;;2.70;;
7571;SDS011;3827;49.928;8.548;2024-02-15T12:11:18;3.35;;;2.47;;
7571;SDS011;3827;49.928;8.548;2024-02-15T12:14:03;4.63;;;2.30;;
7571;SDS011;3827;49.928;8.548;2024-02-15T12:16:58;4.32;;;2.60;;
7571;SDS011;3827;49.928;8.548;2024-02-15T12:19:43;4.70;;;2.60;;
7571;SDS011;3827;49.928;8.548;2024-02-15T12:22:10;3.15;;;2.75;;
7571;SDS011;3827;49.928;8.548;2024-02-15T12:24:37;4.93;;;2.33;;
7571;SDS011;3827;49.928;8.548;2024-02-15T12:27:04;4.05;;;2.25;;
7571;SDS011;3827;49.928;8.548;2024-02-15T12:29:32;3.08;;;1.90;;
7571;SDS011;3827;49.928;8.548;2024-02-15T12:32:00;3.28;;;2.30;;
7571;SDS011;3827;49.928;8.548;2024-02-15T12:34:28;4.87;;;2.40;;
7571;SDS011;3827;49.928;8.548;2024-02-15T12:37:04;6.93;;;2.23;;
7571;SDS011;3827;49.928;8.548;2024-02-15T12:39:33;4.60;;;2.10;;
7571;SDS011;3827;49.928;8.548;2024-02-15T12:42:02;3.45;;;1.92;;
7571;SDS011;3827;49.928;8.548;2024-02-15T12:44:29;3.53;;;2.00;;
7571;SDS011;3827;49.928;8.548;2024-02-15T12:47:00;2.58;;;2.03;;
7571;SDS011;3827;49.928;8.548;2024-02-15T12:49:28;4.82;;;1.80;;
7571;SDS011;3827;49.928;8.548;2024-02-15T12:55:06;3.97;;;2.10;;
7571;SDS011;3827;49.928;8.548;2024-02-15T12:57:43;2.50;;;1.90;;
7571;SDS011;3827;49.928;8.548;2024-02-15T13:00:16;4.20;;;2.20;;
7571;SDS011;3827;49.928;8.548;2024-02-15T13:02:47;3.53;;;2.00;;
7571;SDS011;3827;49.928;8.548;2024-02-15T13:05:15;4.10;;;2.00;;
7571;SDS011;3827;49.928;8.548;2024-02-15T13:07:43;3.28;;;1.75;;
7571;SDS011;3827;49.928;8.548;2024-02-15T13:10:10;3.00;;;1.95;;
7571;SDS011;3827;49.928;8.548;2024-02-15T13:12:39;3.22;;;1.65;;
7571;SDS011;3827;49.928;8.548;2024-02-15T13:15:08;4.53;;;1.90;;
7571;SDS011;3827;49.928;8.548;2024-02-15T13:17:39;3.63;;;2.10;;
7571;SDS011;3827;49.928;8.548;2024-02-15T13:20:08;3.53;;;1.85;;
7571;SDS011;3827;49.928;8.548;2024-02-15T13:22:38;3.20;;;1.70;;
7571;SDS011;3827;49.928;8.548;2024-02-15T13:25:06;3.25;;;1.70;;
7571;SDS011;3827;49.928;8.548;2024-02-15T13:27:34;2.93;;;1.70;;
7571;SDS011;3827;49.928;8.548;2024-02-15T13:30:02;3.85;;;1.70;;
7571;SDS011;3827;49.928;8.548;2024-02-15T13:32:33;2.33;;;1.40;;
7571;SDS011;3827;49.928;8.548;2024-02-15T13:35:01;6.90;;;2.45;;
7571;SDS011;3827;49.928;8.548;2024-02-15T13:37:39;5.73;;;3.10;;
7571;SDS011;3827;49.928;8.548;2024-02-15T13:40:08;5.77;;;4.17;;
7571;SDS011;3827;49.928;8.548;2024-02-15T13:42:40;3.85;;;3.20;;
7571;SDS011;3827;49.928;8.548;2024-02-15T13:45:12;3.80;;;2.80;;
7571;SDS011;3827;49.928;8.548;2024-02-15T13:47:39;5.27;;;3.73;;
7571;SDS011;3827;49.928;8.548;2024-02-15T13:50:06;4.50;;;3.07;;
7571;SDS011;3827;49.928;8.548;2024-02-15T13:52:35;3.53;;;2.40;;
7571;SDS011;3827;49.928;8.548;2024-02-15T13:55:03;4.10;;;1.77;;
7571;SDS011;3827;49.928;8.548;2024-02-15T13:57:31;3.50;;;1.50;;
7571;SDS011;3827;49.928;8.548;2024-02-15T13:59:57;4.20;;;1.70;;
7571;SDS011;3827;49.928;8.548;2024-02-15T14:02:24;3.75;;;2.00;;
7571;SDS011;3827;49.928;8.548;2024-02-15T14:04:51;4.68;;;2.50;;
7571;SDS011;3827;49.928;8.548;2024-02-15T14:07:18;3.05;;;1.90;;
7571;SDS011;3827;49.928;8.548;2024-02-15T14:09:45;3.58;;;1.80;;
7571;SDS011;3827;49.928;8.548;2024-02-15T14:12:13;3.13;;;1.70;;
7571;SDS011;3827;49.928;8.548;2024-02-15T14:14:40;4.20;;;1.80;;
7571;SDS011;3827;49.928;8.548;2024-02-15T14:17:08;4.90;;;1.80;;
7571;SDS011;3827;49.928;8.548;2024-02-15T14:19:35;4.35;;;1.90;;
7571;SDS011;3827;49.928;8.548;2024-02-15T14:22:02;2.78;;;1.70;;
7571;SDS011;3827;49.928;8.548;2024-02-15T14:24:34;3.47;;;1.70;;
7571;SDS011;3827;49.928;8.548;2024-02-15T14:27:01;3.15;;;1.60;;
7571;SDS011;3827;49.928;8.548;2024-02-15T14:29:30;3.00;;;1.70;;
7571;SDS011;3827;49.928;8.548;2024-02-15T14:32:00;2.63;;;1.50;;
7571;SDS011;3827;49.928;8.548;2024-02-15T14:34:44;2.45;;;1.70;;
7571;SDS011;3827;49.928;8.548;2024-02-15T14:37:11;1.30;;;1.20;;
7571;SDS011;3827;49.928;8.548;2024-02-15T14:39:38;3.13;;;1.52;;
7571;SDS011;3827;49.928;8.548;2024-02-15T14:42:05;4.00;;;1.42;;
7571;SDS011;3827;49.928;8.548;2024-02-15T14:44:33;1.97;;;1.50;;
7571;SDS011;3827;49.928;8.548;2024-02-15T14:47:01;2.63;;;1.45;;
7571;SDS011;3827;49.928;8.548;2024-02-15T14:49:29;2.35;;;1.40;;
7571;SDS011;3827;49.928;8.548;2024-02-15T14:51:56;4.28;;;1.70;;
7571;SDS011;3827;49.928;8.548;2024-02-15T14:54:22;2.92;;;1.80;;
7571;SDS011;3827;49.928;8.548;2024-02-15T14:56:49;3.55;;;1.60;;
7571;SDS011;3827;49.928;8.548;2024-02-15T14:59:16;5.18;;;1.80;;
7571;SDS011;3827;49.928;8.548;2024-02-15T15:01:44;2.80;;;1.50;;
7571;SDS011;3827;49.928;8.548;2024-02-15T15:04:11;3.42;;;1.88;;
7571;SDS011;3827;49.928;8.548;2024-02-15T15:06:38;2.50;;;1.63;;
7571;SDS011;3827;49.928;8.548;2024-02-15T15:09:22;3.35;;;1.52;;
7571;SDS011;3827;49.928;8.548;2024-02-15T15:12:07;3.00;;;1.70;;
7571;SDS011;3827;49.928;8.548;2024-02-15T15:14:59;4.72;;;1.90;;
7571;SDS011;3827;49.928;8.548;2024-02-15T15:17:27;7.53;;;2.25;;
7571;SDS011;3827;49.928;8.548;2024-02-15T15:19:54;4.73;;;2.17;;
7571;SDS011;3827;49.928;8.548;2024-02-15T15:22:21;3.97;;;1.95;;
7571;SDS011;3827;49.928;8.548;2024-02-15T15:24:48;4.27;;;1.90;;
7571;SDS011;3827;49.928;8.548;2024-02-15T15:27:15;3.17;;;1.80;;
7571;SDS011;3827;49.928;8.548;2024-02-15T15:29:43;2.13;;;1.83;;